createdAt,value
2019-03-17T00:00:30.963Z,23.46
2019-03-17T00:01:30.949Z,23.46
2019-03-17T00:02:30.941Z,23.36
2019-03-17T00:03:30.919Z,23.46
2019-03-17T00:04:34.239Z,23.16
2019-03-17T00:05:30.858Z,23.26
2019-03-17T00:06:30.831Z,23.26
2019-03-17T00:07:30.821Z,23.44
2019-03-17T00:08:30.796Z,23.46
2019-03-17T00:09:30.778Z,23.46
2019-03-17T00:10:30.749Z,23.46
2019-03-17T00:11:30.737Z,23.46
2019-03-17T00:12:33.790Z,23.55
2019-03-17T00:13:30.693Z,22.96
2019-03-17T00:14:30.661Z,23.07
2019-03-17T00:15:30.644Z,23.35
2019-03-17T00:16:30.624Z,23.07
2019-03-17T00:17:30.613Z,23.35
2019-03-17T00:18:30.582Z,23.16
2019-03-17T00:19:30.556Z,23.06
2019-03-17T00:20:30.540Z,23.46
2019-03-17T00:21:30.535Z,22.96
2019-03-17T00:22:30.508Z,23.07
2019-03-17T00:23:30.469Z,23.36
2019-03-17T00:24:30.454Z,23.07
2019-03-17T00:25:30.438Z,23.25
2019-03-17T00:26:30.420Z,23.07
2019-03-17T00:27:30.390Z,23.26
2019-03-17T00:28:30.462Z,23.26
2019-03-17T00:29:30.344Z,23.26
2019-03-17T00:30:30.336Z,23.25
2019-03-17T00:31:30.315Z,23.26
2019-03-17T00:32:30.290Z,23.36
2019-03-17T00:33:30.263Z,23.16
2019-03-17T00:34:30.245Z,23.46
2019-03-17T00:35:30.234Z,23.16
2019-03-17T00:36:30.266Z,23.26
2019-03-17T00:37:30.176Z,23.16
2019-03-17T00:38:30.153Z,23.16
2019-03-17T00:39:30.148Z,23.26
2019-03-17T00:40:30.113Z,23.46
2019-03-17T00:41:31.584Z,23.25
2019-03-17T00:42:30.067Z,23.26
2019-03-17T00:43:30.057Z,23.26
2019-03-17T00:44:30.031Z,23.26
2019-03-17T00:45:30.015Z,23.35
2019-03-17T00:46:29.983Z,23.26
2019-03-17T00:47:29.965Z,23.36
2019-03-17T00:48:29.948Z,23.16
2019-03-17T00:49:29.931Z,23.46
2019-03-17T00:50:29.903Z,23.26
2019-03-17T00:51:29.877Z,23.25
2019-03-17T00:52:29.866Z,23.26
2019-03-17T00:53:29.846Z,23.26
2019-03-17T00:54:29.825Z,23.26
2019-03-17T00:55:29.793Z,23.26
2019-03-17T00:56:29.777Z,23.36
2019-03-17T00:57:29.749Z,23.36
2019-03-17T00:58:29.739Z,23.36
2019-03-17T00:59:29.774Z,23.26
2019-03-17T01:00:29.691Z,23.25
2019-03-17T01:01:29.673Z,23.16
2019-03-17T01:02:29.658Z,23.25
2019-03-17T01:03:29.641Z,23.16
2019-03-17T01:04:29.606Z,23.16
2019-03-17T01:05:31.222Z,23.16
2019-03-17T01:06:29.615Z,23.16
2019-03-17T01:07:29.555Z,23.26
2019-03-17T01:08:29.535Z,23.16
2019-03-17T01:09:29.256Z,23.06
2019-03-17T01:10:29.481Z,22.96
2019-03-17T01:11:29.467Z,22.88
2019-03-17T01:12:29.511Z,23.16
2019-03-17T01:13:29.423Z,22.97
2019-03-17T01:14:29.393Z,22.78
2019-03-17T01:15:29.380Z,23.26
2019-03-17T01:16:29.354Z,22.88
2019-03-17T01:17:29.363Z,22.88
2019-03-17T01:18:29.315Z,22.88
2019-03-17T01:19:29.286Z,22.88
2019-03-17T01:20:29.272Z,23.06
2019-03-17T01:21:29.253Z,22.88
2019-03-17T01:22:29.227Z,22.86
2019-03-17T01:23:29.232Z,23.06
2019-03-17T01:24:29.193Z,22.96
2019-03-17T01:25:29.169Z,23.07
2019-03-17T01:26:29.147Z,22.86
2019-03-17T01:27:29.119Z,22.96
2019-03-17T01:28:29.101Z,22.86
2019-03-17T01:29:29.073Z,22.88
2019-03-17T01:30:29.071Z,22.86
2019-03-17T01:31:29.034Z,22.57
2019-03-17T01:32:29.016Z,23.06
2019-03-17T01:33:28.988Z,22.78
2019-03-17T01:34:28.978Z,22.86
2019-03-17T01:35:28.959Z,22.97
2019-03-17T01:36:28.929Z,22.67
2019-03-17T01:37:28.906Z,22.86
2019-03-17T01:38:28.896Z,22.97
2019-03-17T01:39:28.875Z,22.68
2019-03-17T01:40:28.844Z,22.88
2019-03-17T01:41:28.822Z,22.58
2019-03-17T01:42:28.798Z,22.97
2019-03-17T01:43:28.788Z,22.68
2019-03-17T01:44:28.763Z,22.97
2019-03-17T01:45:28.744Z,22.96
2019-03-17T01:46:28.716Z,23.07
2019-03-17T01:47:30.360Z,22.78
2019-03-17T01:48:28.676Z,22.88
2019-03-17T01:49:28.663Z,22.88
2019-03-17T01:50:28.627Z,22.58
2019-03-17T01:51:28.383Z,22.49
2019-03-17T01:52:28.594Z,22.58
2019-03-17T01:53:28.574Z,22.58
2019-03-17T01:54:28.554Z,22.49
2019-03-17T01:55:28.536Z,22.78
2019-03-17T01:56:28.514Z,22.78
2019-03-17T01:57:28.490Z,22.78
2019-03-17T01:58:28.470Z,22.77
2019-03-17T01:59:28.436Z,22.57
2019-03-17T02:00:28.423Z,22.78
2019-03-17T02:01:28.396Z,22.78
2019-03-17T02:02:28.386Z,22.77
2019-03-17T02:03:28.354Z,22.77
2019-03-17T02:04:28.335Z,22.78
2019-03-17T02:05:28.317Z,22.68
2019-03-17T02:06:28.301Z,22.67
2019-03-17T02:07:28.282Z,22.68
2019-03-17T02:08:28.251Z,22.49
2019-03-17T02:09:28.226Z,22.49
2019-03-17T02:10:28.213Z,22.67
2019-03-17T02:11:28.198Z,22.78
2019-03-17T02:12:28.168Z,22.68
2019-03-17T02:13:28.140Z,22.68
2019-03-17T02:14:28.120Z,22.68
2019-03-17T02:15:28.110Z,22.48
2019-03-17T02:16:28.101Z,22.57
2019-03-17T02:17:28.067Z,22.58
2019-03-17T02:18:28.035Z,22.57
2019-03-17T02:19:28.025Z,22.57
2019-03-17T02:20:28.011Z,22.68
2019-03-17T02:21:27.982Z,22.48
2019-03-17T02:22:27.956Z,22.58
2019-03-17T02:23:27.928Z,22.49
2019-03-17T02:24:27.914Z,22.58
2019-03-17T02:25:27.899Z,22.48
2019-03-17T02:26:27.871Z,22.49
2019-03-17T02:27:27.851Z,22.49
2019-03-17T02:28:27.828Z,22.58
2019-03-17T02:29:27.817Z,22.57
2019-03-17T02:30:27.914Z,22.48
2019-03-17T02:31:27.796Z,22.49
2019-03-17T02:32:27.505Z,22.49
2019-03-17T02:33:27.727Z,22.68
2019-03-17T02:34:27.728Z,22.77
2019-03-17T02:35:40.474Z,22.68
2019-03-17T02:36:27.662Z,22.77
2019-03-17T02:37:27.396Z,22.88
2019-03-17T02:38:27.645Z,22.68
2019-03-17T02:39:28.823Z,22.68
2019-03-17T02:40:27.580Z,22.68
2019-03-17T02:41:27.550Z,22.68
2019-03-17T02:42:27.294Z,22.58
2019-03-17T02:43:27.520Z,22.68
2019-03-17T02:44:27.503Z,22.78
2019-03-17T02:45:27.465Z,22.67
2019-03-17T02:46:27.452Z,22.49
2019-03-17T02:47:27.447Z,22.68
2019-03-17T02:48:27.410Z,22.88
2019-03-17T02:49:27.408Z,22.88
2019-03-17T02:50:27.363Z,22.68
2019-03-17T02:51:27.121Z,22.68
2019-03-17T02:52:27.343Z,22.88
2019-03-17T02:53:27.318Z,22.58
2019-03-17T02:54:27.288Z,22.49
2019-03-17T02:55:27.271Z,22.57
2019-03-17T02:56:27.242Z,22.68
2019-03-17T02:57:27.220Z,22.68
2019-03-17T02:58:27.206Z,22.58
2019-03-17T02:59:27.203Z,22.57
2019-03-17T03:00:27.182Z,22.68
2019-03-17T03:01:27.137Z,22.58
2019-03-17T03:02:27.110Z,22.57
2019-03-17T03:03:27.101Z,22.78
2019-03-17T03:04:27.070Z,22.68
2019-03-17T03:05:27.061Z,22.78
2019-03-17T03:06:27.024Z,22.49
2019-03-17T03:07:27.021Z,22.78
2019-03-17T03:08:26.984Z,22.48
2019-03-17T03:09:26.972Z,22.78
2019-03-17T03:10:26.942Z,22.48
2019-03-17T03:11:26.931Z,22.49
2019-03-17T03:12:26.914Z,22.78
2019-03-17T03:13:26.892Z,22.58
2019-03-17T03:14:26.867Z,22.49
2019-03-17T03:15:26.833Z,22.58
2019-03-17T03:16:26.820Z,22.68
2019-03-17T03:17:26.808Z,22.68
2019-03-17T03:18:26.790Z,22.49
2019-03-17T03:19:26.749Z,22.49
2019-03-17T03:20:26.735Z,22.57
2019-03-17T03:21:26.703Z,22.78
2019-03-17T03:22:26.700Z,22.68
2019-03-17T03:23:26.668Z,22.78
2019-03-17T03:24:26.646Z,22.58
2019-03-17T03:25:26.643Z,22.68
2019-03-17T03:26:26.609Z,22.49
2019-03-17T03:27:26.588Z,22.49
2019-03-17T03:28:26.568Z,22.49
2019-03-17T03:29:29.815Z,22.49
2019-03-17T03:30:26.618Z,22.58
2019-03-17T03:31:26.552Z,22.78
2019-03-17T03:32:26.497Z,22.78
2019-03-17T03:33:26.476Z,22.58
2019-03-17T03:34:26.436Z,22.58
2019-03-17T03:35:26.418Z,22.78
2019-03-17T03:36:26.394Z,22.68
2019-03-17T03:37:26.382Z,22.39
2019-03-17T03:38:26.367Z,22.49
2019-03-17T03:39:26.342Z,22.58
2019-03-17T03:40:26.325Z,22.48
2019-03-17T03:41:26.455Z,22.68
2019-03-17T03:42:26.362Z,22.68
2019-03-17T03:43:26.249Z,22.58
2019-03-17T03:44:26.233Z,22.68
2019-03-17T03:45:26.211Z,22.58
2019-03-17T03:46:26.180Z,22.49
2019-03-17T03:47:26.158Z,22.58
2019-03-17T03:48:26.143Z,22.58
2019-03-17T03:49:26.121Z,22.68
2019-03-17T03:50:26.143Z,22.49
2019-03-17T03:51:26.080Z,22.58
2019-03-17T03:52:26.054Z,22.78
2019-03-17T03:53:26.032Z,22.58
2019-03-17T03:54:26.031Z,22.78
2019-03-17T03:55:25.988Z,22.58
2019-03-17T03:56:25.970Z,22.49
2019-03-17T03:57:25.960Z,22.68
2019-03-17T03:58:25.945Z,22.68
2019-03-17T03:59:25.958Z,22.58
2019-03-17T04:00:25.893Z,22.58
2019-03-17T04:01:25.628Z,22.78
2019-03-17T04:02:25.848Z,22.68
2019-03-17T04:03:25.825Z,22.49
2019-03-17T04:04:25.813Z,22.49
2019-03-17T04:05:25.776Z,22.78
2019-03-17T04:06:29.405Z,22.49
2019-03-17T04:07:25.502Z,22.58
2019-03-17T04:08:25.734Z,22.49
2019-03-17T04:09:25.705Z,22.49
2019-03-17T04:10:25.669Z,22.68
2019-03-17T04:11:25.659Z,22.58
2019-03-17T04:12:25.742Z,22.58
2019-03-17T04:13:25.616Z,22.58
2019-03-17T04:14:25.631Z,22.78
2019-03-17T04:15:25.630Z,22.68
2019-03-17T04:16:25.597Z,22.88
2019-03-17T04:17:25.533Z,22.58
2019-03-17T04:18:25.504Z,22.58
2019-03-17T04:19:25.651Z,22.2
2019-03-17T04:20:25.575Z,22.1
2019-03-17T04:21:25.443Z,22.2
2019-03-17T04:22:25.429Z,22.58
2019-03-17T04:23:25.397Z,22.1
2019-03-17T04:24:25.542Z,22
2019-03-17T04:25:25.352Z,22.1
2019-03-17T04:26:25.096Z,22.3
2019-03-17T04:27:25.069Z,22.2
2019-03-17T04:28:25.374Z,22.2
2019-03-17T04:29:25.265Z,22.1
2019-03-17T04:30:25.257Z,22.2
2019-03-17T04:31:25.242Z,22.2
2019-03-17T04:32:25.208Z,22.2
2019-03-17T04:33:25.180Z,22.1
2019-03-17T04:34:25.175Z,22.49
2019-03-17T04:35:25.148Z,22.2
2019-03-17T04:36:38.990Z,22.2
2019-03-17T04:37:25.102Z,22.2
2019-03-17T04:38:25.074Z,22.09
2019-03-17T04:39:25.083Z,22.2
2019-03-17T04:40:25.044Z,22.1
2019-03-17T04:41:25.024Z,22
2019-03-17T04:42:24.992Z,22.19
2019-03-17T04:43:24.981Z,22.39
2019-03-17T04:44:25.034Z,22.2
2019-03-17T04:45:24.937Z,22.2
2019-03-17T04:46:24.905Z,22.3
2019-03-17T04:47:24.883Z,22.1
2019-03-17T04:48:24.873Z,22.1
2019-03-17T04:49:24.879Z,22.2
2019-03-17T04:50:24.826Z,22.49
2019-03-17T04:51:24.797Z,22.3
2019-03-17T04:52:24.783Z,22.39
2019-03-17T04:53:24.770Z,22
2019-03-17T04:54:24.745Z,22.1
2019-03-17T04:55:24.713Z,22.39
2019-03-17T04:56:24.701Z,22.1
2019-03-17T04:57:24.669Z,22.49
2019-03-17T04:58:24.662Z,22.39
2019-03-17T04:59:24.636Z,22.39
2019-03-17T05:00:24.612Z,22.39
2019-03-17T05:01:24.586Z,22.39
2019-03-17T05:02:24.578Z,22.39
2019-03-17T05:03:24.561Z,22.39
2019-03-17T05:04:24.529Z,22.1
2019-03-17T05:05:24.503Z,22.3
2019-03-17T05:06:24.485Z,22.39
2019-03-17T05:07:24.473Z,22.3
2019-03-17T05:08:24.446Z,22.3
2019-03-17T05:09:24.428Z,22.3
2019-03-17T05:10:25.383Z,22.1
2019-03-17T05:11:24.387Z,22.1
2019-03-17T05:12:24.358Z,22.39
2019-03-17T05:13:24.346Z,22.1
2019-03-17T05:14:24.313Z,22.2
2019-03-17T05:15:24.306Z,22
2019-03-17T05:16:24.278Z,22.2
2019-03-17T05:17:24.266Z,22.2
2019-03-17T05:18:24.228Z,22.3
2019-03-17T05:19:24.206Z,22.58
2019-03-17T05:20:24.190Z,22.1
2019-03-17T05:21:24.173Z,22.58
2019-03-17T05:22:24.146Z,22.2
2019-03-17T05:23:24.121Z,22.49
2019-03-17T05:24:24.106Z,22.58
2019-03-17T05:25:24.088Z,22.49
2019-03-17T05:26:24.077Z,22.88
2019-03-17T05:27:24.034Z,22.68
2019-03-17T05:28:25.676Z,22.58
2019-03-17T05:29:24.012Z,22.58
2019-03-17T05:30:23.984Z,22.58
2019-03-17T05:31:23.954Z,22.68
2019-03-17T05:32:23.936Z,22.68
2019-03-17T05:33:23.911Z,22.78
2019-03-17T05:34:23.906Z,22.49
2019-03-17T05:35:23.876Z,22.68
2019-03-17T05:36:23.868Z,22.58
2019-03-17T05:37:23.828Z,22.49
2019-03-17T05:38:23.812Z,22.68
2019-03-17T05:39:23.796Z,22.78
2019-03-17T05:40:23.866Z,22.49
2019-03-17T05:41:23.737Z,22.88
2019-03-17T05:42:23.720Z,22.88
2019-03-17T05:43:23.711Z,22.78
2019-03-17T05:44:23.681Z,22.58
2019-03-17T05:45:23.665Z,22.68
2019-03-17T05:46:23.635Z,22.68
2019-03-17T05:47:23.625Z,22.78
2019-03-17T05:48:23.599Z,22.58
2019-03-17T05:49:23.582Z,22.58
2019-03-17T05:50:23.552Z,22.68
2019-03-17T05:51:23.529Z,22.68
2019-03-17T05:52:23.518Z,22.68
2019-03-17T05:53:23.500Z,22.68
2019-03-17T05:54:23.474Z,22.68
2019-03-17T05:55:23.446Z,22.78
2019-03-17T05:56:23.430Z,22.78
2019-03-17T05:57:23.422Z,22.49
2019-03-17T05:58:23.393Z,22.68
2019-03-17T05:59:23.366Z,22.68
2019-03-17T06:00:23.347Z,22.68
2019-03-17T06:01:23.317Z,22.78
2019-03-17T06:02:23.310Z,22.78
2019-03-17T06:03:23.278Z,22.58
2019-03-17T06:04:23.261Z,22.58
2019-03-17T06:05:23.235Z,22.68
2019-03-17T06:06:23.222Z,22.58
2019-03-17T06:07:23.203Z,22.68
2019-03-17T06:08:23.174Z,22.68
2019-03-17T06:09:23.148Z,22.58
2019-03-17T06:10:23.138Z,22.68
2019-03-17T06:11:23.142Z,22.58
2019-03-17T06:12:23.090Z,22.49
2019-03-17T06:13:23.065Z,22.68
2019-03-17T06:14:23.042Z,22.58
2019-03-17T06:15:23.033Z,22.78
2019-03-17T06:16:23.004Z,22.68
2019-03-17T06:17:22.992Z,22.68
2019-03-17T06:18:22.964Z,22.78
2019-03-17T06:19:22.937Z,22.58
2019-03-17T06:20:22.920Z,22.78
2019-03-17T06:21:22.894Z,22.49
2019-03-17T06:22:22.882Z,22.78
2019-03-17T06:23:22.865Z,22.88
2019-03-17T06:24:22.841Z,22.68
2019-03-17T06:25:22.837Z,22.58
2019-03-17T06:26:22.795Z,22.68
2019-03-17T06:27:22.779Z,22.58
2019-03-17T06:28:24.131Z,22.97
2019-03-17T06:29:22.729Z,22.88
2019-03-17T06:30:22.706Z,22.88
2019-03-17T06:31:22.694Z,23.07
2019-03-17T06:32:22.666Z,22.97
2019-03-17T06:33:22.654Z,22.88
2019-03-17T06:34:24.297Z,22.97
2019-03-17T06:35:22.610Z,22.97
2019-03-17T06:36:22.582Z,23.07
2019-03-17T06:37:32.892Z,22.88
2019-03-17T06:38:22.538Z,23.26
2019-03-17T06:39:22.514Z,23.26
2019-03-17T06:40:22.499Z,23.16
2019-03-17T06:41:22.481Z,23.26
2019-03-17T06:42:22.459Z,23.46
2019-03-17T06:43:22.428Z,23.16
2019-03-17T06:44:22.414Z,23.26
2019-03-17T06:45:22.398Z,23.36
2019-03-17T06:46:22.379Z,23.26
2019-03-17T06:47:22.345Z,23.36
2019-03-17T06:48:22.330Z,23.46
2019-03-17T06:49:22.302Z,23.36
2019-03-17T06:50:22.292Z,23.26
2019-03-17T06:51:22.258Z,23.26
2019-03-17T06:52:22.246Z,23.16
2019-03-17T06:53:22.218Z,23.16
2019-03-17T06:54:22.206Z,23.16
2019-03-17T06:55:22.185Z,23.36
2019-03-17T06:56:22.161Z,23.46
2019-03-17T06:57:22.175Z,23.26
2019-03-17T06:58:22.115Z,23.26
2019-03-17T06:59:22.101Z,23.26
2019-03-17T07:00:22.086Z,23.46
2019-03-17T07:01:21.808Z,23.46
2019-03-17T07:02:22.027Z,23.46
2019-03-17T07:03:22.015Z,23.36
2019-03-17T07:04:21.990Z,23.36
2019-03-17T07:05:21.985Z,23.26
2019-03-17T07:06:21.950Z,22.97
2019-03-17T07:07:21.933Z,23.55
2019-03-17T07:08:21.916Z,23.55
2019-03-17T07:09:21.889Z,22.97
2019-03-17T07:10:21.858Z,23.36
2019-03-17T07:11:21.837Z,23.07
2019-03-17T07:12:21.822Z,23.55
2019-03-17T07:13:21.806Z,22.88
2019-03-17T07:14:21.780Z,23.26
2019-03-17T07:15:21.756Z,22.88
2019-03-17T07:16:21.739Z,23.46
2019-03-17T07:17:21.924Z,22.88
2019-03-17T07:18:21.701Z,23.36
2019-03-17T07:19:21.673Z,23.26
2019-03-17T07:20:21.666Z,23.26
2019-03-17T07:21:21.636Z,23.36
2019-03-17T07:22:21.614Z,23.36
2019-03-17T07:23:21.580Z,23.26
2019-03-17T07:24:21.566Z,23.36
2019-03-17T07:25:21.543Z,23.16
2019-03-17T07:26:21.529Z,23.16
2019-03-17T07:27:21.508Z,23.16
2019-03-17T07:28:21.482Z,23.16
2019-03-17T07:29:21.468Z,23.26
2019-03-17T07:30:21.445Z,23.26
2019-03-17T07:31:21.424Z,23.26
2019-03-17T07:32:21.404Z,23.26
2019-03-17T07:33:21.380Z,23.55
2019-03-17T07:34:21.348Z,23.46
2019-03-17T07:35:21.346Z,23.65
2019-03-17T07:36:21.317Z,23.55
2019-03-17T07:37:21.298Z,23.55
2019-03-17T07:38:21.264Z,23.36
2019-03-17T07:39:21.254Z,23.65
2019-03-17T07:40:21.230Z,23.55
2019-03-17T07:41:21.229Z,23.75
2019-03-17T07:42:21.179Z,23.65
2019-03-17T07:43:21.161Z,23.46
2019-03-17T07:44:21.142Z,23.55
2019-03-17T07:45:21.126Z,23.65
2019-03-17T07:46:21.110Z,23.75
2019-03-17T07:47:21.074Z,23.65
2019-03-17T07:48:21.060Z,23.85
2019-03-17T07:49:21.046Z,23.85
2019-03-17T07:50:21.022Z,23.85
2019-03-17T07:51:20.995Z,23.75
2019-03-17T07:52:20.974Z,23.75
2019-03-17T07:53:20.945Z,23.75
2019-03-17T07:54:20.938Z,23.75
2019-03-17T07:55:20.915Z,23.75
2019-03-17T07:56:20.887Z,23.75
2019-03-17T07:57:20.883Z,23.75
2019-03-17T07:58:20.856Z,23.85
2019-03-17T07:59:20.865Z,23.75
2019-03-17T08:00:33.589Z,23.75
2019-03-17T08:01:20.794Z,23.75
2019-03-17T08:02:20.761Z,23.85
2019-03-17T08:03:20.736Z,23.75
2019-03-17T08:04:20.722Z,23.55
2019-03-17T08:05:20.704Z,23.75
2019-03-17T08:06:20.686Z,23.85
2019-03-17T08:07:21.914Z,23.55
2019-03-17T08:08:20.636Z,23.75
2019-03-17T08:09:20.610Z,23.75
2019-03-17T08:10:20.599Z,23.55
2019-03-17T08:11:20.567Z,23.75
2019-03-17T08:12:20.567Z,23.75
2019-03-17T08:13:20.525Z,23.94
2019-03-17T08:14:20.514Z,23.75
2019-03-17T08:15:20.494Z,23.55
2019-03-17T08:16:20.464Z,23.65
2019-03-17T08:17:20.437Z,23.65
2019-03-17T08:18:20.425Z,23.75
2019-03-17T08:19:20.407Z,23.75
2019-03-17T08:20:20.378Z,23.74
2019-03-17T08:21:20.352Z,23.75
2019-03-17T08:22:20.333Z,23.85
2019-03-17T08:23:20.321Z,23.85
2019-03-17T08:24:20.294Z,23.94
2019-03-17T08:25:20.380Z,23.94
2019-03-17T08:26:20.306Z,23.85
2019-03-17T08:27:20.333Z,23.85
2019-03-17T08:28:20.320Z,23.65
2019-03-17T08:29:20.249Z,23.94
2019-03-17T08:30:20.182Z,23.94
2019-03-17T08:31:20.145Z,23.74
2019-03-17T08:32:20.126Z,23.85
2019-03-17T08:33:20.109Z,23.65
2019-03-17T08:34:20.081Z,23.75
2019-03-17T08:35:20.058Z,23.75
2019-03-17T08:36:20.041Z,23.55
2019-03-17T08:37:20.031Z,23.94
2019-03-17T08:38:24.701Z,23.94
2019-03-17T08:39:19.972Z,23.75
2019-03-17T08:40:19.958Z,23.85
2019-03-17T08:41:19.932Z,23.85
2019-03-17T08:42:19.919Z,23.75
2019-03-17T08:43:19.885Z,23.65
2019-03-17T08:44:19.869Z,23.85
2019-03-17T08:45:19.847Z,23.65
2019-03-17T08:46:19.834Z,23.85
2019-03-17T08:47:22.381Z,23.85
2019-03-17T08:48:19.789Z,23.65
2019-03-17T08:49:19.762Z,23.85
2019-03-17T08:50:19.750Z,23.75
2019-03-17T08:51:19.892Z,23.75
2019-03-17T08:52:19.704Z,23.75
2019-03-17T08:53:19.681Z,23.94
2019-03-17T08:54:19.654Z,23.75
2019-03-17T08:55:19.644Z,23.85
2019-03-17T08:56:19.620Z,23.55
2019-03-17T08:57:19.610Z,23.75
2019-03-17T08:58:19.571Z,23.75
2019-03-17T08:59:19.559Z,23.75
2019-03-17T09:00:19.536Z,23.75
2019-03-17T09:01:19.519Z,23.75
2019-03-17T09:02:19.484Z,23.75
2019-03-17T09:03:19.463Z,23.75
2019-03-17T09:04:19.449Z,23.75
2019-03-17T09:05:19.434Z,23.55
2019-03-17T09:06:19.166Z,23.75
2019-03-17T09:07:19.431Z,23.75
2019-03-17T09:08:19.366Z,23.65
2019-03-17T09:09:19.386Z,23.75
2019-03-17T09:10:19.330Z,23.75
2019-03-17T09:11:19.294Z,23.75
2019-03-17T09:12:19.282Z,23.55
2019-03-17T09:13:19.252Z,23.75
2019-03-17T09:14:19.242Z,23.94
2019-03-17T09:15:19.209Z,23.85
2019-03-17T09:16:19.192Z,23.85
2019-03-17T09:17:19.191Z,23.85
2019-03-17T09:18:19.160Z,23.65
2019-03-17T09:19:19.135Z,23.94
2019-03-17T09:20:19.109Z,23.75
2019-03-17T09:21:19.082Z,23.65
2019-03-17T09:22:19.074Z,23.65
2019-03-17T09:23:19.053Z,23.94
2019-03-17T09:24:20.125Z,23.85
2019-03-17T09:25:18.999Z,23.65
2019-03-17T09:26:18.977Z,23.85
2019-03-17T09:27:18.975Z,23.65
2019-03-17T09:28:18.939Z,23.75
2019-03-17T09:29:18.926Z,23.75
2019-03-17T09:30:18.997Z,23.75
2019-03-17T09:31:18.883Z,23.85
2019-03-17T09:32:18.854Z,23.94
2019-03-17T09:33:18.843Z,23.75
2019-03-17T09:34:18.807Z,23.65
2019-03-17T09:35:18.786Z,23.75
2019-03-17T09:36:18.772Z,23.55
2019-03-17T09:37:18.755Z,23.55
2019-03-17T09:38:18.729Z,23.46
2019-03-17T09:39:18.698Z,23.46
2019-03-17T09:40:18.686Z,23.16
2019-03-17T09:41:18.675Z,23.36
2019-03-17T09:42:18.651Z,23.07
2019-03-17T09:43:18.707Z,23.55
2019-03-17T09:44:18.599Z,23.26
2019-03-17T09:45:18.634Z,23.26
2019-03-17T09:46:18.553Z,23.26
2019-03-17T09:47:18.542Z,23.16
2019-03-17T09:48:18.515Z,23.26
2019-03-17T09:49:18.499Z,23.36
2019-03-17T09:50:18.473Z,23.26
2019-03-17T09:51:18.446Z,23.26
2019-03-17T09:52:18.432Z,23.26
2019-03-17T09:53:18.414Z,23.26
2019-03-17T09:54:18.388Z,23.36
2019-03-17T09:55:18.361Z,22.97
2019-03-17T09:56:18.346Z,23.26
2019-03-17T09:57:18.331Z,23.16
2019-03-17T09:58:18.310Z,23.07
2019-03-17T09:59:18.283Z,23.46
2019-03-17T10:00:18.263Z,23.46
2019-03-17T10:01:18.236Z,23.65
2019-03-17T10:02:18.224Z,23.36
2019-03-17T10:03:18.191Z,23.46
2019-03-17T10:04:17.937Z,23.46
2019-03-17T10:05:18.150Z,23.46
2019-03-17T10:06:18.139Z,23.26
2019-03-17T10:07:18.120Z,23.46
2019-03-17T10:08:18.091Z,23.26
2019-03-17T10:09:18.066Z,23.26
2019-03-17T10:10:18.056Z,23.16
2019-03-17T10:11:18.036Z,23.55
2019-03-17T10:12:18.007Z,23.46
2019-03-17T10:13:17.983Z,23.46
2019-03-17T10:14:17.962Z,23.26
2019-03-17T10:15:17.970Z,23.26
2019-03-17T10:16:17.926Z,23.26
2019-03-17T10:17:17.907Z,23.16
2019-03-17T10:18:17.876Z,23.26
2019-03-17T10:19:17.864Z,23.36
2019-03-17T10:20:17.838Z,23.36
2019-03-17T10:21:17.825Z,23.16
2019-03-17T10:22:17.792Z,23.16
2019-03-17T10:23:17.769Z,22.78
2019-03-17T10:24:17.754Z,22.88
2019-03-17T10:25:17.738Z,22.58
2019-03-17T10:26:17.710Z,22.49
2019-03-17T10:27:17.684Z,22.78
2019-03-17T10:28:17.676Z,22.49
2019-03-17T10:29:17.654Z,22.49
2019-03-17T10:30:17.637Z,22.78
2019-03-17T10:31:17.603Z,22.68
2019-03-17T10:32:17.585Z,22.68
2019-03-17T10:33:17.557Z,22.58
2019-03-17T10:34:17.547Z,22.78
2019-03-17T10:35:17.531Z,22.3
2019-03-17T10:36:17.499Z,22.1
2019-03-17T10:37:17.504Z,22.2
2019-03-17T10:38:17.463Z,22.1
2019-03-17T10:39:17.444Z,22.3
2019-03-17T10:40:17.418Z,22.39
2019-03-17T10:41:17.397Z,22.3
2019-03-17T10:42:17.381Z,22.49
2019-03-17T10:43:17.359Z,22
2019-03-17T10:44:17.328Z,22.1
2019-03-17T10:45:17.305Z,22.2
2019-03-17T10:46:17.285Z,22.39
2019-03-17T10:47:17.288Z,22.39
2019-03-17T10:48:17.258Z,22.3
2019-03-17T10:49:17.233Z,22.2
2019-03-17T10:50:17.197Z,22.2
2019-03-17T10:51:17.193Z,22.3
2019-03-17T10:52:17.161Z,22.49
2019-03-17T10:53:17.143Z,22.1
2019-03-17T10:54:17.512Z,22.3
2019-03-17T10:55:17.098Z,22.3
2019-03-17T10:56:17.078Z,22.2
2019-03-17T10:57:17.066Z,22.02
2019-03-17T10:58:17.034Z,22.3
2019-03-17T10:59:17.008Z,22.11
2019-03-17T11:00:17.002Z,22.11
2019-03-17T11:01:16.980Z,22.11
2019-03-17T11:02:16.956Z,22.02
2019-03-17T11:03:16.923Z,22.2
2019-03-17T11:04:16.913Z,22.02
2019-03-17T11:05:16.886Z,22.1
2019-03-17T11:06:16.871Z,22.4
2019-03-17T11:07:16.842Z,22.4
2019-03-17T11:08:16.827Z,22.3
2019-03-17T11:09:27.594Z,22
2019-03-17T11:10:16.786Z,22
2019-03-17T11:11:16.770Z,22
2019-03-17T11:12:16.738Z,22
2019-03-17T11:13:16.717Z,21.71
2019-03-17T11:14:16.696Z,21.51
2019-03-17T11:15:16.682Z,21.71
2019-03-17T11:16:16.653Z,21.72
2019-03-17T11:17:16.630Z,21.71
2019-03-17T11:18:16.607Z,21.53
2019-03-17T11:19:16.599Z,21.62
2019-03-17T11:20:16.578Z,21.62
2019-03-17T11:21:16.555Z,21.43
2019-03-17T11:22:16.520Z,21.04
2019-03-17T11:23:16.513Z,21.43
2019-03-17T11:24:16.487Z,21.04
2019-03-17T11:25:16.469Z,21.04
2019-03-17T11:26:16.440Z,21.33
2019-03-17T11:27:16.418Z,21.25
2019-03-17T11:28:16.410Z,21.34
2019-03-17T11:29:16.385Z,21.25
2019-03-17T11:30:16.360Z,20.96
2019-03-17T11:31:16.332Z,21.43
2019-03-17T11:32:16.320Z,20.86
2019-03-17T11:33:16.303Z,20.96
2019-03-17T11:34:16.280Z,20.96
2019-03-17T11:35:16.251Z,20.96
2019-03-17T11:36:16.234Z,21.33
2019-03-17T11:37:16.207Z,21.04
2019-03-17T11:38:16.202Z,21.33
2019-03-17T11:39:16.163Z,21.24
2019-03-17T11:40:16.148Z,21.04
2019-03-17T11:41:16.126Z,21.53
2019-03-17T11:42:16.113Z,21.14
2019-03-17T11:43:16.108Z,20.95
2019-03-17T11:44:16.065Z,20.95
2019-03-17T11:45:16.051Z,20.85
2019-03-17T11:46:16.029Z,21.04
2019-03-17T11:47:16.008Z,20.95
2019-03-17T11:48:15.741Z,21.04
2019-03-17T11:49:15.956Z,20.95
2019-03-17T11:50:15.934Z,20.95
2019-03-17T11:51:15.925Z,21.04
2019-03-17T11:52:15.895Z,21.14
2019-03-17T11:53:15.883Z,20.95
2019-03-17T11:54:15.852Z,20.85
2019-03-17T11:55:15.840Z,21.14
2019-03-17T11:56:15.813Z,21.33
2019-03-17T11:57:15.801Z,20.95
2019-03-17T11:58:15.765Z,21.24
2019-03-17T11:59:15.748Z,21.24
2019-03-17T12:00:15.733Z,21.14
2019-03-17T12:01:17.950Z,20.75
2019-03-17T12:02:28.493Z,20.56
2019-03-17T12:03:15.668Z,20.75
2019-03-17T12:04:15.646Z,20.75
2019-03-17T12:05:15.631Z,20.95
2019-03-17T12:06:15.609Z,20.86
2019-03-17T12:07:15.577Z,20.75
2019-03-17T12:08:15.569Z,21.04
2019-03-17T12:09:28.064Z,20.67
2019-03-17T12:10:15.531Z,20.75
2019-03-17T12:11:15.496Z,20.56
2019-03-17T12:12:15.477Z,20.75
2019-03-17T12:13:15.453Z,20.95
2019-03-17T12:14:15.459Z,20.85
2019-03-17T12:15:15.422Z,20.85
2019-03-17T12:16:15.395Z,20.37
2019-03-17T12:17:15.392Z,20.95
2019-03-17T12:18:15.365Z,20.65
2019-03-17T12:19:15.338Z,20.65
2019-03-17T12:20:15.310Z,20.56
2019-03-17T12:21:15.284Z,20.46
2019-03-17T12:22:15.266Z,21.14
2019-03-17T12:23:15.253Z,20.56
2019-03-17T12:24:15.231Z,20.65
2019-03-17T12:25:15.219Z,20.46
2019-03-17T12:26:15.181Z,20.56
2019-03-17T12:27:15.167Z,20.56
2019-03-17T12:28:15.145Z,20.46
2019-03-17T12:29:15.127Z,20.56
2019-03-17T12:30:15.095Z,20.85
2019-03-17T12:31:15.076Z,20.46
2019-03-17T12:32:15.064Z,20.37
2019-03-17T12:33:15.051Z,20.37
2019-03-17T12:34:15.016Z,20.37
2019-03-17T12:35:14.996Z,20.37
2019-03-17T12:36:14.979Z,20.37
2019-03-17T12:37:14.963Z,20.56
2019-03-17T12:38:14.940Z,20.46
2019-03-17T12:39:14.909Z,20.46
2019-03-17T12:40:14.914Z,20.56
2019-03-17T12:41:14.864Z,20.37
2019-03-17T12:42:14.855Z,20.27
2019-03-17T12:43:14.826Z,20.65
2019-03-17T12:44:14.807Z,20.37
2019-03-17T12:45:14.782Z,20.46
2019-03-17T12:46:14.787Z,20.65
2019-03-17T12:47:14.751Z,20.46
2019-03-17T12:48:14.729Z,20.65
2019-03-17T12:49:14.697Z,20.46
2019-03-17T12:50:14.683Z,20.37
2019-03-17T12:51:14.669Z,20.27
2019-03-17T12:52:14.637Z,20.07
2019-03-17T12:53:14.614Z,20.27
2019-03-17T12:54:14.592Z,20.07
2019-03-17T12:55:14.585Z,20.46